Nearby METAR Reports

 

KISM - Kissimmee/Orland, Florida, USA
Distance from station: NW 19mi, 31km
Updated: 04/22/2018 4:56pm
Mostly cloudy
Mostly cloudy
 Wind from ESE
Wind: ESE 13 mph , 20 km/h
Temperature: 81°F , 27°C
Heat Index: 85°F , 29°C
Dew Point: 70°F , 21°C
Humidity: 70%
Barometer: 30.03 inHg , 1016.9 hPa
Clouds: Mostly cloudy
Visibility: 10 miles , 16 km
Cloud details: Mostly cloudy 3500 ft
2018/04/22 20:56 KISM 222056Z 12011KT 10SM BKN035 27/21 A3003 RMK AO2 LTG DSNT SW SLP172 T02670211 58028
KMCO - Orlando, Florida, USA
Distance from station: NNW 23mi, 37km
Updated: 04/22/2018 4:53pm
Partly cloudy
Partly cloudy
 Wind from E
Wind: E 17 mph , 28 km/h
Temperature: 79°F , 26°C
Dew Point: 68°F , 20°C
Humidity: 70%
Barometer: 30.04 inHg , 1017.3 hPa
Clouds: Partly cloudy
Visibility: 10 miles , 16 km
Cloud details: Few Clouds 3000 ft
Few Clouds 8000 ft
Partly cloudy 25000 ft
2018/04/22 20:53 KMCO 222053Z 10015KT 10SM FEW030 FEW080 SCT250 26/20 A3004 RMK AO2 SLP171 CB DSNT NE S-SW MOV N T02560200 56026
 
KORL - Orlando, Florida, USA
Distance from station: NNW 32mi, 51km
Updated: 04/22/2018 4:53pm
Few Clouds
Few Clouds
 Wind from ESE
Wind: ESE 17 mph , 28 km/h, Gust: 25 mph , 41 km/h
Temperature: 79°F , 26°C
Dew Point: 68°F , 20°C
Humidity: 70%
Barometer: 30.04 inHg , 1017.3 hPa
Clouds: Few Clouds
Visibility: 10 miles , 16 km
Cloud details: Few Clouds 2200 ft
2018/04/22 20:53 KORL 222053Z 12015G22KT 10SM FEW022 26/20 A3004 RMK AO2 SLP177 T02560200 58019
KMLB - Melbourne, Florida, USA
Distance from station: E 32mi, 52km
Updated: 04/22/2018 4:53pm
Few Clouds
Few Clouds
 Wind from ESE
Wind: ESE 17 mph , 28 km/h, Gust: 25 mph , 41 km/h
Temperature: 79°F , 26°C
Dew Point: 66°F , 19°C
Humidity: 65%
Barometer: 30.05 inHg , 1017.6 hPa
Clouds: Few Clouds
Visibility: 10 miles , 16 km
Cloud details: Few Clouds 2400 ft
2018/04/22 20:53 KMLB 222053Z 11015G22KT 10SM FEW024 26/19 A3005 RMK AO2 SLP176 60002 T02610189 58022
 
KGIF - Winter Haven, Florida, USA
Distance from station: W 35mi, 56km
Updated: 04/22/2018 5:37pm
Rain, Mist, Overcast
Rain, Mist, Overcast
 Wind from E
Wind: E 13 mph , 20 km/h
Temperature: 72°F , 22°C
Dew Point: 70°F , 21°C
Humidity: 94%
Barometer: 30.01 inHg , 1016.3 hPa
Summary: Rain, Mist
Clouds: Overcast
Visibility: 5 miles , 8 km
Cloud details: Partly cloudy 3500 ft
Mostly cloudy 5500 ft
Overcast 8000 ft
2018/04/22 21:37 KGIF 222137Z AUTO 09011KT 5SM RA BR SCT035 BKN055 OVC080 22/21 A3001 RMK AO2 WSHFT 2049 RAB2059 PRESFR P0042 T02220206
KTIX - Titusville, Florida, USA
Distance from station: NE 35mi, 57km
Updated: 04/22/2018 4:47pm
Partly cloudy
Partly cloudy
 Wind from ESE
Wind: ESE 17 mph , 28 km/h
Temperature: 79°F , 26°C
Dew Point: 66°F , 19°C
Humidity: 65%
Barometer: 30.07 inHg , 1018.3 hPa
Clouds: Partly cloudy
Visibility: 7 miles , 11 km
Cloud details: Partly cloudy 3500 ft
2018/04/22 20:47 KTIX 222047Z 12015KT 7SM SCT035 26/19 A3007
 
KCOF - Patrick Afb/Coco, Florida, USA
Distance from station: ENE 36mi, 58km
Updated: 04/22/2018 5:37pm
Partly cloudy
Partly cloudy
 Wind from E
Wind: E 14 mph , 22 km/h
Temperature: 75°F , 24°C
Dew Point: 73°F , 23°C
Humidity: 94%
Barometer: 30.04 inHg , 1017.3 hPa
Clouds: Partly cloudy
Visibility: 10 miles , 16 km
Cloud details: Few Clouds 1000 ft
Partly cloudy 1900 ft
2018/04/22 21:37 KCOF 222137Z AUTO 10012KT 10SM FEW010 SCT019 24/23 A3004 RMK AO2 DZB30E37 SLP177 $
KBOW - Bartow Municipal, Florida, USA
Distance from station: WSW 38mi, 61km
Updated: 04/22/2018 5:12pm
Light rain, Mostly cloudy
Light rain, Mostly cloudy
 Wind from ENE
Wind: ENE 16 mph , 26 km/h
Temperature: 68°F , 20°C
Dew Point: 68°F , 20°C
Humidity: 100%
Barometer: 30.02 inHg , 1016.6 hPa
Summary: Light rain
Clouds: Mostly cloudy
Visibility: 6 miles , 10 km
Cloud details: Partly cloudy 800 ft
Mostly cloudy 2500 ft
2018/04/22 21:12 KBOW 222112Z 07014KT 6SM -RA SCT008 BKN025 20/20 A3002 RMK TSE12 MVD N
 
KXMR - Cape Canaveral, Florida, USA
Distance from station: NE 44mi, 72km
Updated: 04/22/2018 4:56pm
Haze, Few clouds
Haze, Few clouds
 Wind from ESE
Wind: ESE 14 mph , 22 km/h
Temperature: 73°F , 23°C
Dew Point: 70°F , 21°C
Humidity: 89%
Barometer: 30.05 inHg , 1017.6 hPa
Summary: Haze
Clouds: Few Clouds
Visibility: 5 miles , 8 km
Cloud details: Few Clouds 12000 ft
2018/04/22 20:56 KXMR 222056Z AUTO 11012KT 5SM HZ FEW120 23/21 A3005 RMK AO2 VIS 1 5/8 RWY13 LTG DSNT NE RAE21DZB21E27 SLP179 P0002 60120 T02340211 58024 FZRANO $
KTTS - Nasa Shuttle Fcl, Florida, USA
Distance from station: NE 45mi, 72km
Updated: 04/22/2018 4:56pm
Clear
Clear
 Wind from ESE
Wind: ESE 14 mph , 22 km/h, Gust: 21 mph , 33 km/h
Temperature: 75°F , 24°C
Dew Point: 68°F , 20°C
Humidity: 78%
Barometer: 30.06 inHg , 1017.9 hPa
Clouds: Clear
Visibility: 10 miles , 16 km
2018/04/22 20:56 KTTS 222056Z AUTO 12012G18KT 10SM CLR 24/20 A3006 RMK AO2 LTG DSNT NE SLP184 60001 T02380203 57026 $
 
KSFB - Sanford/Orlando, Florida, USA
Distance from station: N 45mi, 73km
Updated: 04/22/2018 4:53pm
Clear
Clear
 Wind from ESE
Wind: ESE 15 mph , 24 km/h
Temperature: 75°F , 24°C
Dew Point: 68°F , 20°C
Humidity: 78%
Barometer: 30.05 inHg , 1017.6 hPa
Clouds: Clear
Visibility: 10 miles , 16 km
2018/04/22 20:53 KSFB 222053Z 12013KT 10SM CLR 24/20 A3005 RMK AO2 RAE1957 SLP175 P0000 60030 T02390200 58020
KLAL - Lakeland Regiona, Florida, USA
Distance from station: WSW 52mi, 84km
Updated: 04/22/2018 4:56pm
Mostly cloudy
Mostly cloudy
 Wind from E
Wind: E 17 mph , 28 km/h
Temperature: 82°F , 28°C
Heat Index: 85°F , 29°C
Dew Point: 68°F , 20°C
Humidity: 62%
Barometer: 30.00 inHg , 1015.9 hPa
Clouds: Mostly cloudy
Visibility: 10 miles , 16 km
Cloud details: Mostly cloudy 3800 ft
Mostly cloudy 12000 ft
2018/04/22 20:56 KLAL 222056Z 08015KT 10SM BKN038 BKN120 28/20 A3000
 
KVRB - Vero Beach, Florida, USA
Distance from station: SE 57mi, 91km
Updated: 04/22/2018 4:53pm
Clear
Clear
 Wind from ESE
Wind: ESE 13 mph , 20 km/h
Temperature: 79°F , 26°C
Dew Point: 68°F , 20°C
Humidity: 70%
Barometer: 30.04 inHg , 1017.3 hPa
Clouds: Clear
Visibility: 10 miles , 16 km
2018/04/22 20:53 KVRB 222053Z 12011KT 10SM CLR 26/20 A3004 RMK AO2 SLP173 T02560200 58022
KZPH - Zephyrhills, Florida, USA
Distance from station: W 60mi, 96km
Updated: 04/22/2018 5:35pm
Partly cloudy
Partly cloudy
 Wind from E
Wind: E 7 mph , 11 km/h, Gust: 18 mph , 30 km/h
Temperature: 84°F , 29°C
Heat Index: 87°F , 31°C
Dew Point: 68°F , 20°C
Humidity: 58%
Barometer: 29.99 inHg , 1015.6 hPa
Clouds: Partly cloudy
Visibility: 10 miles , 16 km
Cloud details: Partly cloudy 3600 ft
Partly cloudy 12000 ft
2018/04/22 21:35 KZPH 222135Z AUTO 09006G16KT 10SM SCT036 SCT120 29/20 A2999 RMK AO2 T02910200
 
KPCM - Plant City Muni, Florida, USA
Distance from station: W 61mi, 98km
Updated: 04/22/2018 11:55am
NOT Current
Mostly cloudy
Mostly cloudy
 Wind from E
Wind: E 10 mph , 17 km/h, Gust: 18 mph , 30 km/h
Temperature: 82°F , 28°C
Heat Index: 85°F , 29°C
Dew Point: 68°F , 20°C
Humidity: 62%
Barometer: 30.15 inHg , 1021 hPa
Clouds: Mostly cloudy
Visibility: 10 miles , 16 km
Cloud details: Partly cloudy 2700 ft
Mostly cloudy 3300 ft
Mostly cloudy 4000 ft
2018/04/22 15:55 KPCM 221555Z AUTO 08009G16KT 10SM SCT027 BKN033 BKN040 28/20 A3015 RMK AO2
KLEE - Leesburg, Florida, USA
Distance from station: NW 62mi, 100km
Updated: 04/22/2018 4:53pm
Partly cloudy
Partly cloudy
 Wind from ESE
Wind: ESE 15 mph , 24 km/h
Temperature: 79°F , 26°C
Dew Point: 70°F , 21°C
Humidity: 74%
Barometer: 30.04 inHg , 1017.3 hPa
Clouds: Partly cloudy
Visibility: 10 miles , 16 km
Cloud details: Partly cloudy 2600 ft
2018/04/22 20:53 KLEE 222053Z 11013KT 10SM SCT026 26/21 A3004 RMK AO2 SLP169 T02610206 58035
 
KOBE - Okeechobee Cty, Florida, USA
Distance from station: SSE 62mi, 100km
Updated: 04/22/2018 5:35pm
Partly cloudy
Partly cloudy
 Wind from E
Wind: E 7 mph , 11 km/h
Temperature: 77°F , 25°C
Dew Point: 68°F , 20°C
Humidity: 74%
Barometer: 30.02 inHg , 1016.6 hPa
Clouds: Partly cloudy
Visibility: 10 miles , 16 km
Cloud details: Partly cloudy 11000 ft
2018/04/22 21:35 KOBE 222135Z AUTO 10006KT 10SM SCT110 25/20 A3002 RMK AO2 LTG DSNT E AND S
KFPR - Fort Pierce, Florida, USA
Distance from station: SE 65mi, 104km
Updated: 04/22/2018 4:53pm
Clear
Clear
 Wind from ESE
Wind: ESE 12 mph , 19 km/h
Temperature: 75°F , 24°C
Dew Point: 68°F , 20°C
Humidity: 78%
Barometer: 30.04 inHg , 1017.3 hPa
Clouds: Clear
Visibility: 10 miles , 16 km
2018/04/22 20:53 KFPR 222053Z 12010KT 10SM CLR 24/20 A3004 RMK AO2 SLP170 60000 T02440200 58020
 
KDED - Deland, Florida, USA
Distance from station: N 66mi, 106km
Updated: 04/22/2018 5:35pm
Mostly cloudy
Mostly cloudy
 Wind from E
Wind: E 14 mph , 22 km/h
Temperature: 73°F , 23°C
Dew Point: 68°F , 20°C
Humidity: 83%
Barometer: 30.04 inHg , 1017.3 hPa
Clouds: Mostly cloudy
Visibility: 10 miles , 16 km
Cloud details: Partly cloudy 1100 ft
Partly cloudy 2200 ft
Mostly cloudy 12000 ft
2018/04/22 21:35 KDED 222135Z AUTO 09012KT 10SM SCT011 SCT022 BKN120 23/20 A3004 RMK AO2
KEVB - New Smyrna Beach, Florida, USA
Distance from station: NNE 66mi, 106km
Updated: 04/22/2018 5:20pm
Light rain, Mist, Mostly cloudy
Light rain, Mist, Mostly cloudy
 Wind from SE
Wind: SE 14 mph , 22 km/h
Temperature: 68°F , 20°C
Dew Point: 66°F , 19°C
Humidity: 94%
Barometer: 30.07 inHg , 1018.3 hPa
Summary: Light rain, Mist
Clouds: Mostly cloudy
Visibility: 5 miles , 8 km
Cloud details: Partly cloudy 1700 ft
Mostly cloudy 3400 ft
2018/04/22 21:20 KEVB 222120Z 14012KT 5SM -RABR SCT017 BKN034 20/19 A3007